CPL2 weather

Bracebridge (South Muskoka Memorial Hospital) Heliport
Bracebridge, Ontario, Canada

Public forecast

Using degrees Celsius for public forecast. Weather courtesy of forecast.io.

METAR (pilot weather report)

Closest report is Muskoka Airport, 4.5 nm (8.3 km) S. Retrieved 2019/07/17 19:00 UTC (39 minutes ago):

CYQA 171900Z AUTO 34004KT 310V070 9SM FEW055 28/17 A2989 RMK SLP118 DENSITY ALT 2600FT

TAF (pilot weather forecast)

Closest forecast is Muskoka Airport, 4.5 nm (8.3 km) S. Retrieved 2019/07/17 20:00 UTC (0 seconds ago):

TAF CYQA 171938Z 1720/1802 35006KT P6SM FEW040 RMK FCST BASED ON AUTO OBS. NXT FCST WILL BE ISSUED AT 181145Z